Latest Coastal Weather Observations for Willis Island

IDQ60701

Issued at 12:22 am EST Thursday 30 June 2016 (issued every 10 minutes, with the page automatically refreshed every 10 minutes)

About coastal observations | Map of coastal stations | Coastal observations for QLD | Marine services | Other Formats
Station Details ID: 200283 Name: WILLIS ISLAND Lat: -16.29 Lon: 149.97 Height: 9.29 m
Data from the previous 72 hours. | See also: Recent months at Willis Island
Date/Time
EST
Temp
°C
Wind Pressure Rain since
9am
mm
Weather Cloud Vis
km
Sea
Height
m
Swell
Dir  Spd
kts
Gust
kts
hPa Trend Height
m
Period
s
Dir
30/12:00am 24.3 ESE 18 22 1018.5 F 0.0 - - - - - - -
 
Date/Time
EST
Temp
°C
Wind Pressure Rain since
9am
mm
Weather Cloud Vis
km
Sea
Height
m
Swell
Dir  Spd
kts
Gust
kts
hPa Trend Height
m
Period
s
Dir
29/11:30pm 24.2 ESE 20 23 1018.6 - 0.0 - - - - - - -
29/11:00pm 24.2 ESE 21 26 1018.9 - 0.0 - - - - - - -
29/10:30pm 24.4 ESE 20 25 1019.1 - 0.0 - - - - - - -
29/10:00pm 24.3 ESE 22 25 1019.2 - 0.0 - - - - - - -
29/09:30pm 24.5 ESE 23 27 1019.3 - 0.0 - - - - - - -
29/09:00pm 24.5 ESE 21 26 1019.3 F 0.0 - - - - - - -
29/08:30pm 24.4 ESE 20 24 1019.3 - 0.0 - - - - - - -
29/08:00pm 24.5 ESE 22 27 1019.2 - 0.0 - - - - - - -
29/07:30pm 24.4 SE 19 23 1019.0 - 0.0 - - - - - - -
29/07:00pm 24.3 SE 22 26 1018.7 - 0.0 - - - - - - -
29/06:30pm 24.2 SE 19 24 1018.4 - 0.0 - - - - - - -
29/06:00pm 24.1 SE 21 24 1018.1 R 0.0 Haze Mostly clear 25 2 2.2 7 SE
29/05:30pm 24.3 SE 21 26 1017.9 - 0.0 - - - - - - -
29/05:00pm 24.4 SE 21 25 1017.7 - 0.0 - - - - - - -
29/04:30pm 24.4 SE 21 24 1017.4 - 0.0 - - - - - - -
29/04:00pm 24.6 SE 21 25 1017.2 - 0.0 - - - - - - -
29/03:30pm 24.7 SE 22 26 1017.1 - 0.0 - - - - - - -
29/03:00pm 25.2 SE 22 26 1016.9 F 0.0 Haze Partly cloudy 25 2 2.4 7 SE
29/02:30pm 25.0 SE 20 24 1017.0 - 0.0 - - - - - - -
29/02:00pm 25.7 SE 20 24 1017.2 - 0.0 - - - - - - -
29/01:30pm 25.0 SE 22 25 1017.6 - 0.0 - - - - - - -
29/01:00pm 25.5 SE 22 27 1017.9 - 0.0 - - - - - - -
29/12:30pm 25.4 SE 21 26 1018.5 - 0.0 - - - - - - -
29/12:00pm 25.7 SE 22 25 1019.0 R 0.0 Haze Partly cloudy 25 3 2.5 7 SE
29/11:30am 24.9 SE 20 25 1019.4 - 0.0 - - - - - - -
29/11:00am 25.5 SE 23 27 1019.5 - 0.0 - - - - - - -
29/10:30am 24.7 ESE 22 27 1019.6 - 0.0 - - - - - - -
29/10:00am 25.0 SE 22 26 1019.6 - 0.0 - - - - - - -
29/09:30am 24.9 ESE 22 28 1019.6 - 0.0 - - - - - - -
29/09:00am 24.5 ESE 23 26 1019.8 F 0.0 Haze Partly cloudy 20 3 2.6 8 SE
29/08:30am 24.1 SE 23 26 1019.8 - 0.0 - - - - - - -
29/08:00am 24.1 SE 22 27 1019.6 - 0.0 - - - - - - -
29/07:30am 23.5 SE 24 28 1019.4 - 0.0 - - - - - - -
29/07:00am 23.1 SE 23 27 1019.1 - 0.0 - - - - - - -
29/06:30am 23.2 SE 23 27 1019.0 - 0.0 - - - - - - -
29/06:00am 23.1 SE 22 27 1018.8 R 0.0 - - - - - - -
29/05:30am 23.1 SE 23 26 1018.5 - 0.0 - - - - - - -
29/05:00am 23.4 SE 23 27 1018.4 - 0.0 - - - - - - -
29/04:30am 23.5 SSE 22 26 1018.3 - 0.0 - - - - - - -
29/04:00am 23.5 SSE 22 26 1018.2 - 0.0 - - - - - - -
29/03:30am 23.7 SE 22 26 1018.1 - 0.0 - - - - - - -
29/03:00am 23.5 SSE 24 28 1018.1 F 0.0 - - - - - - -
29/02:30am 23.7 SSE 24 28 1018.3 - 0.0 - - - - - - -
29/02:00am 23.8 SSE 23 28 1018.4 - 0.0 - - - - - - -
29/01:30am 23.9 SE 24 27 1018.9 - 0.0 - - - - - - -
29/01:00am 23.9 SSE 25 30 1019.0 - 0.0 - - - - - - -
29/12:30am 23.9 SE 25 29 1019.1 - 0.0 - - - - - - -
29/12:00am 23.9 SSE 26 30 1019.4 R 0.0 - - - - - - -
 
Date/Time
EST
Temp
°C
Wind Pressure Rain since
9am
mm
Weather Cloud Vis
km
Sea
Height
m
Swell
Dir  Spd
kts
Gust
kts
hPa Trend Height
m
Period
s
Dir
28/11:30pm 24.0 SSE 27 32 1019.4 - 0.0 - - - - - - -
28/11:00pm 24.2 SSE 27 33 1019.3 - 0.0 - - - - - - -
28/10:30pm 24.3 SSE 26 30 1019.3 - 0.0 - - - - - - -
28/10:00pm 24.4 SSE 27 31 1019.2 - 0.0 - - - - - - -
28/09:30pm 24.5 SSE 26 31 1019.1 - 0.0 - - - - - - -
28/09:00pm 24.8 SSE 26 31 1018.9 R 0.0 - - - - - - -
28/08:30pm 24.9 SSE 27 32 1018.8 - 0.0 - - - - - - -
28/08:00pm 25.1 SSE 27 31 1018.5 - 0.0 - - - - - - -
28/07:30pm 25.0 SSE 26 31 1018.2 - 0.0 - - - - - - -
28/07:00pm 25.1 SSE 26 31 1017.9 - 0.0 - - - - - - -
28/06:30pm 25.1 SSE 27 32 1017.3 - 0.0 - - - - - - -
28/06:00pm 25.2 SSE 25 29 1017.0 S 0.0 Showers Mostly cloudy 20 2 1.4 7 SE
28/05:30pm 25.3 SSE 25 29 1016.7 - 0.0 - - - - - - -
28/05:00pm 25.3 SSE 23 28 1016.5 - 0.0 - - - - - - -
28/04:30pm 25.8 SE 22 25 1016.2 - 0.0 - - - - - - -
28/04:00pm 26.0 SSE 21 24 1015.9 - 0.0 - - - - - - -
28/03:30pm 26.8 SSE 16 20 1015.9 - 0.0 - - - - - - -
28/03:00pm 27.1 SE 16 19 1015.9 R 0.0 Distant precip. Mostly clear 30 2 1.4 7 SE
28/02:30pm 27.2 SSE 16 18 1015.8 - 0.0 - - - - - - -
28/02:00pm 27.6 SE 16 18 1015.9 - 0.0 - - - - - - -
28/01:30pm 27.6 SSE 15 17 1016.0 - 0.0 - - - - - - -
28/01:00pm 27.5 SE 15 18 1016.4 - 0.0 - - - - - - -
28/12:30pm 27.7 SE 15 17 1016.8 - 0.0 - - - - - - -
28/12:00pm 27.8 SE 15 17 1016.9 R 0.0 Distant precip. Mostly clear 30 1 1.3 6 SE
28/11:30am 27.8 SE 15 17 1017.1 - 0.0 - - - - - - -
28/11:00am 27.5 SE 15 17 1017.2 - 0.0 - - - - - - -
28/10:30am 27.7 SE 14 16 1017.5 - 0.0 - - - - - - -
28/10:00am 27.6 SE 12 14 1017.7 - 0.0 - - - - - - -
28/09:30am 27.2 SE 14 16 1017.6 - 0.0 - - - - - - -
28/09:00am 27.1 SE 14 17 1017.7 R 0.0 Distant precip. Partly cloudy 30 1 1.2 6 E
28/08:30am 26.6 SE 15 17 1017.5 - 0.0 - - - - - - -
28/08:00am 26.0 SSE 15 17 1017.1 - 0.0 - - - - - - -
28/07:30am 25.7 SSE 15 17 1016.8 - 0.0 - - - - - - -
28/07:00am 25.6 SE 13 15 1016.3 - 0.0 - - - - - - -
28/06:30am 25.2 SE 13 15 1015.8 - 0.0 - - - - - - -
28/06:00am 25.2 SE 14 16 1015.5 R 0.0 - - - - - - -
28/05:30am 25.3 ESE 14 16 1015.1 - 0.0 - - - - - - -
28/05:00am 25.2 ESE 14 16 1014.9 - 0.0 - - - - - - -
28/04:30am 25.3 SE 13 15 1014.8 - 0.0 - - - - - - -
28/04:00am 25.4 SE 12 15 1014.9 - 0.0 - - - - - - -
28/03:30am 25.6 SE 12 14 1014.8 - 0.0 - - - - - - -
28/03:00am 25.5 ESE 13 14 1014.8 R 0.0 - - - - - - -
28/02:30am 25.5 ESE 13 14 1015.0 - 0.0 - - - - - - -
28/02:00am 25.4 ESE 11 13 1015.2 - 0.0 - - - - - - -
28/01:30am 25.6 ESE 11 14 1015.4 - 0.0 - - - - - - -
28/01:00am 25.6 ESE 11 13 1015.6 - 0.0 - - - - - - -
28/12:30am 25.6 ESE 11 12 1015.8 - 0.0 - - - - - - -
28/12:00am 25.6 ESE 11 12 1015.8 R 0.0 - - - - - - -
 
Date/Time
EST
Temp
°C
Wind Pressure Rain since
9am
mm
Weather Cloud Vis
km
Sea
Height
m
Swell
Dir  Spd
kts
Gust
kts
hPa Trend Height
m
Period
s
Dir
27/11:30pm 25.6 ESE 11 13 1016.1 - 0.0 - - - - - - -
27/11:00pm 25.6 SE 11 12 1016.1 - 0.0 - - - - - - -
27/10:30pm 25.7 ESE 11 12 1016.0 - 0.0 - - - - - - -
27/10:00pm 25.8 ESE 11 13 1016.0 - 0.0 - - - - - - -
27/09:30pm 25.9 ESE 11 12 1016.1 - 0.0 - - - - - - -
27/09:00pm 25.9 ESE 10 11 1016.1 S 0.0 - - - - - - -
27/08:30pm 25.9 ESE 11 12 1015.9 - 0.0 - - - - - - -
27/08:00pm 25.8 ESE 10 11 1015.9 - 0.0 - - - - - - -
27/07:30pm 25.7 ESE 9 11 1015.6 - 0.0 - - - - - - -
27/07:00pm 25.7 ESE 10 11 1015.4 - 0.0 - - - - - - -
27/06:30pm 25.8 ESE 9 11 1015.0 - 0.0 - - - - - - -
27/06:00pm 25.8 ESE 10 11 1014.7 S 0.0 Haze Mostly cloudy 25 1 1.2 6 E
27/05:30pm 25.9 E 9 11 1014.4 - 0.0 - - - - - - -
27/05:00pm 26.5 E 10 11 1014.1 - 0.0 - - - - - - -
27/04:30pm 26.8 E 10 11 1014.0 - 0.0 - - - - - - -
27/04:00pm 27.1 E 10 11 1013.7 - 0.0 - - - - - - -
27/03:30pm 27.3 ENE 10 11 1013.5 - 0.0 - - - - - - -
27/03:00pm 27.6 E 10 12 1013.6 S 0.0 Haze Mostly clear 20 1 1.2 6 E
27/02:30pm 27.6 ENE 11 13 1013.6 - 0.0 - - - - - - -
27/02:00pm 27.6 ENE 11 13 1013.7 - 0.0 - - - - - - -
27/01:30pm 28.0 E 11 13 1014.0 - 0.0 - - - - - - -
27/01:00pm 27.9 ENE 12 14 1014.4 - 0.0 - - - - - - -
27/12:30pm 28.1 ENE 11 13 1014.7 - 0.0 - - - - - - -
27/12:00pm 28.5 E 10 11 1015.2 R 0.0 Fine Mostly clear 30 1 1.2 6 E
27/11:30am 28.4 E 9 10 1015.5 - 0.0 - - - - - - -
27/11:00am 28.2 E 9 10 1015.9 - 0.0 - - - - - - -
27/10:30am 27.8 ENE 10 11 1015.9 - 0.0 - - - - - - -
27/10:00am 27.9 ENE 10 11 1016.0 - 0.0 - - - - - - -
27/09:30am 27.6 E 10 12 1016.2 - 0.0 - - - - - - -
27/09:00am 27.2 E 12 13 1016.1 R 0.2 Fine Mostly clear 30 1 1.2 6 E
27/08:30am 27.0 E 13 14 1016.0 - 0.2 - - - - - - -
27/08:00am 26.6 E 12 14 1015.7 - 0.2 - - - - - - -
27/07:30am 26.3 E 13 14 1015.4 - 0.2 - - - - - - -
27/07:00am 25.7 E 12 13 1015.3 - 0.2 - - - - - - -
27/06:30am 25.6 E 11 13 1015.1 - 0.2 - - - - - - -
27/06:00am 25.7 ENE 12 14 1014.6 R 0.2 - - - - - - -
27/05:30am 25.7 E 11 12 1014.3 - 0.2 - - - - - - -
27/05:00am 25.7 E 12 13 1014.2 - 0.2 - - - - - - -
27/04:30am 25.6 ENE 12 14 1014.2 - 0.2 - - - - - - -
27/04:00am 25.6 ENE 11 13 1014.0 - 0.2 - - - - - - -
27/03:30am 25.6 ENE 13 14 1014.0 - 0.2 - - - - - - -
27/03:00am 25.6 E 11 13 1013.9 R 0.2 - - - - - - -
27/02:30am 25.6 ENE 11 13 1014.0 - 0.2 - - - - - - -
27/02:00am 25.6 ENE 11 13 1014.1 - 0.2 - - - - - - -
27/01:30am 25.5 E 11 13 1014.2 - 0.2 - - - - - - -
27/01:00am 25.6 E 12 15 1014.3 - 0.2 - - - - - - -
27/12:30am 25.6 E 13 14 1014.4 - 0.2 - - - - - - -

Other Formats:

Comma delimited format used in spreadsheet applications
http://www.bom.gov.au/fwo/IDQ60701/IDQ60701.94299.axf

JavaScript Object Notation format (JSON) in row-major order
http://www.bom.gov.au/fwo/IDQ60701/IDQ60701.94299.json